createdAt,value
2023-02-05T00:01:28.185Z,18.97
2023-02-05T00:03:54.522Z,18.91
2023-02-05T00:06:20.886Z,18.95
2023-02-05T00:08:47.229Z,18.94
2023-02-05T00:13:57.373Z,18.97
2023-02-05T00:16:23.799Z,18.98
2023-02-05T00:18:50.171Z,18.94
2023-02-05T00:21:16.504Z,18.90
2023-02-05T00:23:42.830Z,18.90
2023-02-05T00:29:03.867Z,18.95
2023-02-05T00:31:30.386Z,18.94
2023-02-05T00:33:56.767Z,18.96
2023-02-05T00:36:23.122Z,18.97
2023-02-05T00:38:49.478Z,18.94
2023-02-05T00:43:59.889Z,18.91
2023-02-05T00:46:26.234Z,18.94
2023-02-05T00:48:52.562Z,18.94
2023-02-05T00:51:18.893Z,18.95
2023-02-05T00:53:45.237Z,18.95
2023-02-05T00:59:05.662Z,18.93
2023-02-05T01:01:32.090Z,18.91
2023-02-05T01:03:58.406Z,18.88
2023-02-05T01:06:24.724Z,18.91
2023-02-05T01:08:51.098Z,18.90
2023-02-05T01:14:01.053Z,18.96
2023-02-05T01:16:27.382Z,18.90
2023-02-05T01:18:53.758Z,18.92
2023-02-05T01:21:20.090Z,18.92
2023-02-05T01:23:46.494Z,18.89
2023-02-05T01:28:56.649Z,18.94
2023-02-05T01:31:23.030Z,18.94
2023-02-05T01:33:49.440Z,18.98
2023-02-05T01:36:15.831Z,18.97
2023-02-05T01:38:42.186Z,18.99
2023-02-05T01:44:02.310Z,19.07
2023-02-05T01:46:28.697Z,19.02
2023-02-05T01:48:55.031Z,18.99
2023-02-05T01:51:21.378Z,19.06
2023-02-05T01:53:47.727Z,19.01
2023-02-05T01:58:58.925Z,18.98
2023-02-05T02:01:25.323Z,18.98
2023-02-05T02:03:51.678Z,18.89
2023-02-05T02:06:18.898Z,18.79
2023-02-05T02:08:45.291Z,18.66
2023-02-05T02:11:11.647Z,18.63
2023-02-05T02:13:37.969Z,18.64
2023-02-05T02:16:07.150Z,18.53
2023-02-05T02:18:33.520Z,18.55
2023-02-05T02:20:59.872Z,18.56
2023-02-05T02:23:26.191Z,18.54
2023-02-05T02:25:52.577Z,18.52
2023-02-05T02:28:18.939Z,18.55
2023-02-05T02:30:45.319Z,18.43
2023-02-05T02:33:11.880Z,18.49
2023-02-05T02:35:38.255Z,18.46
2023-02-05T02:38:04.594Z,18.49
2023-02-05T02:40:30.927Z,18.43
2023-02-05T02:42:57.274Z,18.44
2023-02-05T02:45:23.630Z,18.40
2023-02-05T02:47:49.956Z,18.37
2023-02-05T02:50:16.287Z,18.40
2023-02-05T02:52:42.621Z,18.43
2023-02-05T02:55:08.964Z,18.42
2023-02-05T02:57:35.304Z,18.41
2023-02-05T03:00:01.630Z,18.49
2023-02-05T03:02:28.060Z,18.44
2023-02-05T03:04:54.387Z,18.44
2023-02-05T03:07:20.784Z,18.45
2023-02-05T03:09:47.149Z,18.47
2023-02-05T03:12:13.506Z,18.53
2023-02-05T03:14:39.863Z,18.40
2023-02-05T03:17:06.243Z,18.34
2023-02-05T03:19:32.611Z,18.40
2023-02-05T03:21:58.968Z,18.42
2023-02-05T03:24:25.314Z,18.44
2023-02-05T03:26:51.662Z,18.41
2023-02-05T03:32:12.032Z,18.42
2023-02-05T03:34:38.392Z,18.39
2023-02-05T03:37:04.757Z,18.35
2023-02-05T03:39:31.090Z,18.38
2023-02-05T03:41:57.421Z,18.43
2023-02-05T03:47:07.844Z,18.41
2023-02-05T03:49:34.153Z,18.43
2023-02-05T03:52:00.482Z,18.36
2023-02-05T03:54:26.818Z,18.37
2023-02-05T03:56:53.148Z,18.33
2023-02-05T04:02:13.161Z,18.37
2023-02-05T04:04:39.558Z,18.36
2023-02-05T04:07:05.946Z,18.31
2023-02-05T04:09:32.283Z,18.28
2023-02-05T04:11:58.590Z,18.26
2023-02-05T04:17:08.786Z,18.39
2023-02-05T04:19:35.156Z,18.33
2023-02-05T04:22:01.551Z,18.37
2023-02-05T04:24:27.873Z,18.38
2023-02-05T04:26:54.178Z,18.30
2023-02-05T04:32:14.570Z,18.36
2023-02-05T04:34:40.944Z,18.30
2023-02-05T04:37:07.253Z,18.35
2023-02-05T04:39:33.568Z,18.26
2023-02-05T04:41:59.893Z,18.28
2023-02-05T04:47:10.279Z,18.22
2023-02-05T04:49:36.622Z,18.28
2023-02-05T04:52:03.036Z,18.27
2023-02-05T04:54:29.391Z,18.33
2023-02-05T04:56:55.725Z,18.28
2023-02-05T05:02:15.896Z,18.28
2023-02-05T05:04:43.255Z,18.25
2023-02-05T05:07:09.741Z,18.26
2023-02-05T05:09:36.075Z,18.19
2023-02-05T05:12:02.390Z,18.20
2023-02-05T05:17:13.595Z,18.34
2023-02-05T05:19:39.921Z,18.28
2023-02-05T05:22:06.277Z,18.27
2023-02-05T05:24:32.634Z,18.31
2023-02-05T05:26:58.956Z,18.31
2023-02-05T05:32:19.077Z,18.33
2023-02-05T05:34:45.493Z,18.37
2023-02-05T05:37:11.853Z,18.36
2023-02-05T05:39:38.214Z,18.34
2023-02-05T05:42:04.558Z,18.28
2023-02-05T05:47:14.687Z,18.31
2023-02-05T05:49:41.008Z,18.40
2023-02-05T05:52:07.330Z,18.43
2023-02-05T05:54:33.646Z,18.43
2023-02-05T05:57:00.046Z,18.41
2023-02-05T05:59:26.425Z,18.41
2023-02-05T06:01:52.749Z,18.40
2023-02-05T06:04:19.134Z,18.23
2023-02-05T06:06:45.477Z,18.23
2023-02-05T06:09:11.838Z,18.26
2023-02-05T06:11:38.170Z,18.23
2023-02-05T06:14:04.811Z,18.24
2023-02-05T06:16:31.296Z,18.27
2023-02-05T06:18:57.616Z,18.27
2023-02-05T06:21:23.948Z,18.23
2023-02-05T06:23:50.296Z,18.31
2023-02-05T06:26:16.630Z,18.27
2023-02-05T06:28:43.023Z,18.25
2023-02-05T06:31:09.471Z,18.24
2023-02-05T06:33:35.868Z,18.29
2023-02-05T06:36:02.207Z,18.27
2023-02-05T06:38:28.533Z,18.26
2023-02-05T06:40:54.863Z,18.25
2023-02-05T06:43:21.188Z,18.27
2023-02-05T06:45:47.574Z,18.41
2023-02-05T06:48:13.958Z,18.30
2023-02-05T06:50:40.285Z,18.44
2023-02-05T06:53:06.694Z,18.32
2023-02-05T06:55:33.393Z,18.40
2023-02-05T06:57:59.976Z,18.30
2023-02-05T07:00:26.301Z,18.32
2023-02-05T07:02:52.677Z,18.40
2023-02-05T07:05:19.115Z,18.29
2023-02-05T07:07:45.451Z,18.13
2023-02-05T07:10:11.818Z,18.12
2023-02-05T07:12:40.937Z,17.96
2023-02-05T07:15:07.255Z,17.98
2023-02-05T07:20:30.352Z,18.24
2023-02-05T07:22:56.798Z,18.28
2023-02-05T07:25:23.119Z,18.23
2023-02-05T07:27:49.470Z,18.16
2023-02-05T07:30:15.866Z,18.20
2023-02-05T07:35:26.178Z,18.21
2023-02-05T07:37:52.531Z,18.17
2023-02-05T07:40:18.847Z,18.23
2023-02-05T07:42:45.225Z,18.13
2023-02-05T07:45:11.602Z,18.18
2023-02-05T07:50:21.706Z,18.23
2023-02-05T07:52:48.061Z,18.24
2023-02-05T07:55:14.438Z,18.12
2023-02-05T07:57:41.080Z,18.22
2023-02-05T08:00:07.412Z,18.16
2023-02-05T08:05:18.198Z,18.18
2023-02-05T08:07:44.756Z,18.22
2023-02-05T08:10:11.145Z,18.18
2023-02-05T08:12:37.481Z,18.18
2023-02-05T08:15:03.857Z,18.26
2023-02-05T08:20:24.373Z,18.04
2023-02-05T08:22:50.765Z,18.16
2023-02-05T08:25:17.997Z,18.16
2023-02-05T08:27:44.658Z,18.04
2023-02-05T08:30:13.877Z,18.04
2023-02-05T08:35:26.026Z,18.15
2023-02-05T08:37:53.314Z,18.02
2023-02-05T08:40:19.745Z,18.03
2023-02-05T08:42:46.220Z,18.04
2023-02-05T08:45:12.687Z,17.98
2023-02-05T08:50:35.088Z,18.01
2023-02-05T08:53:01.590Z,18.06
2023-02-05T08:55:29.005Z,18.16
2023-02-05T08:57:55.543Z,18.25
2023-02-05T09:00:22.914Z,18.25
2023-02-05T09:05:34.567Z,18.22
2023-02-05T09:08:02.123Z,18.27
2023-02-05T09:10:28.653Z,18.23
2023-02-05T09:12:55.116Z,18.21
2023-02-05T09:15:24.869Z,18.32
2023-02-05T09:20:35.682Z,18.38
2023-02-05T09:23:02.142Z,18.36
2023-02-05T09:25:29.535Z,18.37
2023-02-05T09:27:56.027Z,18.35
2023-02-05T09:30:22.516Z,18.35
2023-02-05T09:35:43.129Z,18.33
2023-02-05T09:38:09.619Z,18.38
2023-02-05T09:40:36.097Z,18.30
2023-02-05T09:43:04.527Z,18.36
2023-02-05T09:45:33.369Z,18.39
2023-02-05T09:50:57.766Z,18.16
2023-02-05T09:53:25.473Z,18.12
2023-02-05T09:55:51.973Z,18.13
2023-02-05T09:58:18.515Z,18.18
2023-02-05T10:00:45.051Z,18.26
2023-02-05T10:05:55.651Z,18.23
2023-02-05T10:08:23.033Z,18.12
2023-02-05T10:10:50.469Z,18.11
2023-02-05T10:13:17.870Z,18.08
2023-02-05T10:15:44.352Z,18.09
2023-02-05T10:18:11.735Z,18.06
2023-02-05T10:20:39.111Z,18.08
2023-02-05T10:23:06.391Z,18.05
2023-02-05T10:25:34.114Z,18.06
2023-02-05T10:28:01.609Z,18.00
2023-02-05T10:30:28.093Z,18.00
2023-02-05T10:32:55.426Z,17.90
2023-02-05T10:35:23.757Z,17.90
2023-02-05T10:37:51.014Z,17.95
2023-02-05T10:40:20.226Z,17.89
2023-02-05T10:42:46.669Z,17.90
2023-02-05T10:45:15.713Z,17.98
2023-02-05T10:47:43.654Z,17.89
2023-02-05T10:50:12.851Z,17.86
2023-02-05T10:52:41.137Z,17.92
2023-02-05T10:55:09.458Z,17.86
2023-02-05T10:57:35.912Z,17.88
2023-02-05T11:00:02.386Z,17.72
2023-02-05T11:02:29.372Z,17.67
2023-02-05T11:04:58.541Z,17.69
2023-02-05T11:07:24.979Z,17.68
2023-02-05T11:09:54.180Z,17.70
2023-02-05T11:12:20.716Z,17.68
2023-02-05T11:14:50.665Z,17.70
2023-02-05T11:17:17.180Z,17.69
2023-02-05T11:19:45.994Z,17.70
2023-02-05T11:22:14.285Z,17.70
2023-02-05T11:24:40.740Z,17.74
2023-02-05T11:27:07.176Z,17.77
2023-02-05T11:29:33.612Z,17.75
2023-02-05T11:32:00.271Z,17.73
2023-02-05T11:34:28.655Z,17.74
2023-02-05T11:36:55.094Z,17.72
2023-02-05T11:39:23.346Z,17.70
2023-02-05T11:41:49.783Z,17.71
2023-02-05T11:44:16.274Z,17.72
2023-02-05T11:46:45.572Z,17.72
2023-02-05T11:49:13.883Z,17.72
2023-02-05T11:54:34.259Z,17.70
2023-02-05T11:57:00.867Z,17.69
2023-02-05T11:59:30.292Z,17.71
2023-02-05T12:01:57.571Z,17.69
2023-02-05T12:04:24.029Z,17.71
2023-02-05T12:09:37.047Z,17.69
2023-02-05T12:12:03.543Z,17.69
2023-02-05T12:14:30.160Z,17.70
2023-02-05T12:16:58.414Z,17.69
2023-02-05T12:19:25.849Z,17.72
2023-02-05T12:24:36.166Z,17.70
2023-02-05T12:27:03.403Z,17.69
2023-02-05T12:29:29.797Z,17.67
2023-02-05T12:31:56.253Z,17.70
2023-02-05T12:34:22.681Z,17.69
2023-02-05T12:39:45.822Z,17.69
2023-02-05T12:42:14.404Z,17.69
2023-02-05T12:44:40.774Z,17.70
2023-02-05T12:47:07.124Z,17.70
2023-02-05T12:49:33.499Z,17.70
2023-02-05T12:54:43.806Z,17.69
2023-02-05T12:57:11.038Z,17.66
2023-02-05T12:59:40.169Z,17.67
2023-02-05T13:02:06.714Z,17.68
2023-02-05T13:04:33.034Z,17.67
2023-02-05T13:09:43.208Z,17.67
2023-02-05T13:12:09.565Z,17.67
2023-02-05T13:14:35.943Z,17.65
2023-02-05T13:17:02.317Z,17.66
2023-02-05T13:19:28.701Z,17.63
2023-02-05T13:21:55.050Z,17.68
2023-02-05T13:24:21.465Z,17.66
2023-02-05T13:26:47.806Z,17.67
2023-02-05T13:29:14.144Z,17.68
2023-02-05T13:31:40.529Z,17.62
2023-02-05T13:34:06.911Z,17.62
2023-02-05T13:39:34.380Z,17.64
2023-02-05T13:42:01.056Z,17.65
2023-02-05T13:44:27.364Z,17.59
2023-02-05T13:46:54.736Z,17.62
2023-02-05T13:49:21.098Z,17.64
2023-02-05T13:54:31.248Z,17.59
2023-02-05T13:56:57.578Z,17.59
2023-02-05T13:59:24.043Z,17.58
2023-02-05T14:01:50.487Z,17.60
2023-02-05T14:04:16.933Z,17.60
2023-02-05T14:09:27.160Z,17.61
2023-02-05T14:11:53.517Z,17.59
2023-02-05T14:14:19.892Z,17.59
2023-02-05T14:16:47.157Z,17.59
2023-02-05T14:19:14.972Z,17.61
2023-02-05T14:21:41.309Z,17.59
2023-02-05T14:24:07.629Z,17.60
2023-02-05T14:26:33.991Z,17.61
2023-02-05T14:29:00.371Z,17.57
2023-02-05T14:31:26.717Z,17.58
2023-02-05T14:33:53.086Z,17.59
2023-02-05T14:36:19.604Z,17.63
2023-02-05T14:38:45.948Z,17.62
2023-02-05T14:41:13.426Z,17.61
2023-02-05T14:43:39.768Z,17.65
2023-02-05T14:46:06.149Z,17.61
2023-02-05T14:48:32.643Z,18.09
2023-02-05T14:50:59.040Z,18.24
2023-02-05T14:53:25.396Z,18.23
2023-02-05T14:55:51.738Z,18.24
2023-02-05T14:58:18.970Z,18.22
2023-02-05T15:00:47.283Z,18.20
2023-02-05T15:03:13.743Z,18.20
2023-02-05T15:05:40.172Z,18.24
2023-02-05T15:08:07.572Z,18.24
2023-02-05T15:10:34.816Z,18.28
2023-02-05T15:13:01.329Z,18.32
2023-02-05T15:15:27.764Z,18.24
2023-02-05T15:17:54.281Z,18.32
2023-02-05T15:20:21.589Z,18.28
2023-02-05T15:22:48.984Z,18.33
2023-02-05T15:25:16.360Z,18.36
2023-02-05T15:27:42.869Z,18.31
2023-02-05T15:30:09.402Z,18.34
2023-02-05T15:32:35.873Z,18.34
2023-02-05T15:35:02.536Z,18.26
2023-02-05T15:37:29.008Z,18.25
2023-02-05T15:42:40.450Z,18.25
2023-02-05T15:45:06.939Z,18.23
2023-02-05T15:47:33.449Z,18.30
2023-02-05T15:49:59.939Z,18.28
2023-02-05T15:52:27.369Z,18.27
2023-02-05T15:57:39.029Z,18.31
2023-02-05T16:00:05.525Z,18.28
2023-02-05T16:02:32.048Z,18.28
2023-02-05T16:04:58.548Z,18.27
2023-02-05T16:07:25.049Z,18.27
2023-02-05T16:12:36.533Z,18.86
2023-02-05T16:15:03.936Z,18.52
2023-02-05T16:17:30.418Z,18.65
2023-02-05T16:19:56.914Z,18.43
2023-02-05T16:22:24.321Z,18.48
2023-02-05T16:27:34.780Z,18.24
2023-02-05T16:30:01.321Z,18.43
2023-02-05T16:32:28.024Z,18.55
2023-02-05T16:34:55.454Z,18.34
2023-02-05T16:37:22.891Z,18.37
2023-02-05T16:42:45.469Z,18.23
2023-02-05T16:45:11.975Z,18.43
2023-02-05T16:47:38.454Z,18.37
2023-02-05T16:50:04.985Z,18.33
2023-02-05T16:52:31.493Z,18.46
2023-02-05T16:57:52.966Z,18.39
2023-02-05T17:00:19.461Z,18.47
2023-02-05T17:02:46.892Z,18.33
2023-02-05T17:05:13.420Z,18.26
2023-02-05T17:07:39.915Z,18.37
2023-02-05T17:13:01.352Z,18.42
2023-02-05T17:15:28.861Z,18.55
2023-02-05T17:17:56.165Z,18.37
2023-02-05T17:20:22.681Z,18.36
2023-02-05T17:22:50.125Z,18.41
2023-02-05T17:28:11.781Z,18.18
2023-02-05T17:30:39.413Z,18.25
2023-02-05T17:33:06.835Z,18.30
2023-02-05T17:35:33.348Z,18.35
2023-02-05T17:37:59.871Z,18.24
2023-02-05T17:43:11.148Z,18.36
2023-02-05T17:45:37.664Z,18.27
2023-02-05T17:48:04.170Z,18.22
2023-02-05T17:50:30.648Z,18.24
2023-02-05T17:52:57.282Z,18.42
2023-02-05T17:58:08.066Z,18.32
2023-02-05T18:00:35.691Z,18.37
2023-02-05T18:03:03.273Z,18.24
2023-02-05T18:05:30.750Z,18.45
2023-02-05T18:07:59.071Z,18.43
2023-02-05T18:13:23.532Z,18.50
2023-02-05T18:15:52.134Z,18.63
2023-02-05T18:18:20.530Z,18.58
2023-02-05T18:20:49.803Z,18.45
2023-02-05T18:23:28.299Z,18.51
2023-02-05T18:28:43.340Z,18.50
2023-02-05T18:31:11.772Z,18.55
2023-02-05T18:33:40.219Z,18.36
2023-02-05T18:36:08.466Z,18.22
2023-02-05T18:38:36.712Z,18.13
2023-02-05T18:44:00.140Z,18.54
2023-02-05T18:46:26.715Z,18.29
2023-02-05T18:48:53.401Z,18.37
2023-02-05T18:51:20.814Z,18.63
2023-02-05T18:53:47.295Z,18.46
2023-02-05T18:59:09.005Z,18.20
2023-02-05T19:01:35.680Z,18.34
2023-02-05T19:04:02.272Z,18.36
2023-02-05T19:06:29.716Z,18.33
2023-02-05T19:08:57.157Z,18.38
2023-02-05T19:14:08.508Z,18.20
2023-02-05T19:16:36.070Z,18.45
2023-02-05T19:19:03.498Z,18.33
2023-02-05T19:21:29.966Z,18.11
2023-02-05T19:23:56.472Z,18.41
2023-02-05T19:29:07.790Z,18.40
2023-02-05T19:31:35.256Z,18.54
2023-02-05T19:34:02.568Z,18.51
2023-02-05T19:36:29.050Z,18.52
2023-02-05T19:38:55.515Z,18.46
2023-02-05T19:41:22.937Z,18.52
2023-02-05T19:43:49.412Z,18.51
2023-02-05T19:46:15.940Z,18.48
2023-02-05T19:48:42.464Z,18.53
2023-02-05T19:51:09.090Z,18.49
2023-02-05T19:53:35.558Z,18.50
2023-02-05T19:56:02.336Z,18.51
2023-02-05T19:58:29.717Z,18.50
2023-02-05T20:00:56.764Z,18.53
2023-02-05T20:03:23.206Z,18.51
2023-02-05T20:05:50.614Z,18.46
2023-02-05T20:08:18.012Z,18.50
2023-02-05T20:10:45.320Z,18.42
2023-02-05T20:13:11.960Z,18.45
2023-02-05T20:15:38.435Z,18.44
2023-02-05T20:18:05.212Z,18.50
2023-02-05T20:20:44.920Z,18.56
2023-02-05T20:23:11.513Z,18.55
2023-02-05T20:25:39.037Z,18.57
2023-02-05T20:28:06.454Z,18.59
2023-02-05T20:30:34.188Z,18.63
2023-02-05T20:33:01.800Z,18.68
2023-02-05T20:35:28.275Z,18.64
2023-02-05T20:37:55.662Z,18.66
2023-02-05T20:40:23.098Z,18.67
2023-02-05T20:42:49.706Z,18.64
2023-02-05T20:45:16.167Z,18.71
2023-02-05T20:47:42.760Z,18.68
2023-02-05T20:50:10.179Z,18.70
2023-02-05T20:52:36.609Z,18.75
2023-02-05T20:55:03.068Z,18.70
2023-02-05T20:57:30.394Z,18.72
2023-02-05T21:02:53.667Z,18.78
2023-02-05T21:05:22.453Z,18.75
2023-02-05T21:07:48.884Z,18.71
2023-02-05T21:10:15.343Z,18.75
2023-02-05T21:12:41.797Z,18.74
2023-02-05T21:17:52.832Z,18.74
2023-02-05T21:20:20.205Z,18.72
2023-02-05T21:22:47.642Z,18.75
2023-02-05T21:25:14.982Z,18.73
2023-02-05T21:27:41.428Z,18.80
2023-02-05T21:33:03.650Z,18.76
2023-02-05T21:35:30.156Z,18.74
2023-02-05T21:37:56.623Z,18.73
2023-02-05T21:40:24.155Z,18.55
2023-02-05T21:42:50.596Z,18.28
2023-02-05T21:48:01.746Z,18.22
2023-02-05T21:50:29.030Z,18.13
2023-02-05T21:52:56.468Z,18.03
2023-02-05T21:55:23.741Z,18.05
2023-02-05T21:57:51.054Z,18.11
2023-02-05T22:03:12.347Z,18.35
2023-02-05T22:05:38.995Z,18.07
2023-02-05T22:08:06.265Z,18.01
2023-02-05T22:10:32.798Z,17.99
2023-02-05T22:12:59.307Z,17.98
2023-02-05T22:18:09.684Z,17.90
2023-02-05T22:20:37.077Z,17.93
2023-02-05T22:23:03.728Z,18.06
2023-02-05T22:25:31.170Z,18.11
2023-02-05T22:27:57.687Z,18.00
2023-02-05T22:33:18.340Z,18.08
2023-02-05T22:35:45.123Z,18.04
2023-02-05T22:38:13.312Z,18.07
2023-02-05T22:40:40.698Z,18.01
2023-02-05T22:43:08.071Z,18.00
2023-02-05T22:48:19.297Z,17.98
2023-02-05T22:50:46.672Z,18.01
2023-02-05T22:53:13.131Z,17.90
2023-02-05T22:55:40.513Z,17.97
2023-02-05T22:58:07.996Z,17.99
2023-02-05T23:03:29.370Z,17.96
2023-02-05T23:05:55.871Z,17.95
2023-02-05T23:08:22.336Z,17.94
2023-02-05T23:10:49.724Z,17.84
2023-02-05T23:13:17.058Z,17.87
2023-02-05T23:18:38.506Z,17.90
2023-02-05T23:21:05.905Z,17.89
2023-02-05T23:23:33.283Z,17.82
2023-02-05T23:25:59.805Z,17.79
2023-02-05T23:28:27.146Z,17.90
2023-02-05T23:33:40.043Z,17.84
2023-02-05T23:36:06.562Z,17.88
2023-02-05T23:38:34.025Z,17.82
2023-02-05T23:41:01.435Z,17.85
2023-02-05T23:43:28.809Z,17.80
2023-02-05T23:48:50.177Z,17.79
2023-02-05T23:51:17.708Z,17.79
2023-02-05T23:53:45.101Z,17.74
2023-02-05T23:56:12.513Z,17.74
2023-02-05T23:58:39.882Z,17.77
